Time;durP1;ratioP1;P1;durP2;ratioP2;P2;SDS_P1;SDS_P2;PMS_P1;PMS_P2;Temp;Humidity;BMP_temperature;BMP_pressure;BME280_temperature;BME280_humidity;BME280_pressure;Samples;Min_cycle;Max_cycle;Signal;HPM_P1;HPM_P2
2022/11/13 00:06:06;;;;;;;90.67;27.40;;;;;7.90;99961.00;;;;16674075;28;20225;-71
2022/11/13 00:14:28;;;;;;;23.67;19.90;;;;;8.00;99941.00;;;;16650288;28;20226;-71
2022/11/13 00:22:49;;;;;;;22.87;18.80;;;;;8.00;99943.00;;;;16651958;28;20230;-70
2022/11/13 00:31:14;;;;;;;19.20;17.40;;;;;8.00;99938.00;;;;16665746;28;20225;-70
2022/11/13 00:39:35;;;;;;;23.93;18.20;;;;;7.80;99932.00;;;;16647059;28;20213;-70
2022/11/13 00:47:58;;;;;;;21.87;18.77;;;;;7.60;99923.00;;;;16650299;28;20324;-70
2022/11/13 00:56:19;;;;;;;94.60;26.97;;;;;7.30;99910.00;;;;16634444;28;20218;-70
2022/11/13 01:04:42;;;;;;;60.53;26.90;;;;;7.00;99913.00;;;;16671021;28;20239;-70
2022/11/13 01:13:03;;;;;;;95.23;28.47;;;;;6.90;99915.00;;;;16650993;28;20219;-70
2022/11/13 01:21:26;;;;;;;32.47;23.20;;;;;6.90;99910.00;;;;16649427;28;20605;-70
2022/11/13 01:29:47;;;;;;;20.40;17.80;;;;;6.90;99893.00;;;;16648480;28;20690;-70
2022/11/13 01:38:10;;;;;;;23.17;18.00;;;;;7.20;99881.00;;;;16658012;28;20264;-69
2022/11/13 01:46:33;;;;;;;22.63;19.23;;;;;7.40;99868.00;;;;16660977;28;20759;-70
2022/11/13 01:54:57;;;;;;;24.80;20.50;;;;;7.40;99866.00;;;;16660277;28;20217;-70
2022/11/13 02:03:18;;;;;;;19.40;17.50;;;;;7.10;99854.00;;;;16678091;28;20598;-69
2022/11/13 02:11:40;;;;;;;29.43;17.00;;;;;6.80;99848.00;;;;16661128;28;20233;-70
2022/11/13 02:20:04;;;;;;;19.73;17.47;;;;;6.80;99842.00;;;;16646057;28;20824;-70
2022/11/13 02:28:26;;;;;;;21.13;14.47;;;;;7.10;99827.00;;;;16671056;28;20311;-70
2022/11/13 02:36:47;;;;;;;14.90;13.40;;;;;6.70;99818.00;;;;16666745;28;20220;-71
2022/11/13 02:45:12;;;;;;;19.93;16.73;;;;;6.80;99810.00;;;;16654116;28;20232;-70
2022/11/13 02:53:33;;;;;;;16.10;14.57;;;;;7.10;99801.00;;;;16649231;28;20302;-70
2022/11/13 03:01:58;;;;;;;13.93;12.63;;;;;7.00;99795.00;;;;16666318;28;20241;-69
2022/11/13 03:10:19;;;;;;;14.27;12.77;;;;;6.40;99800.00;;;;16642858;28;20559;-69
2022/11/13 03:18:41;;;;;;;17.10;15.30;;;;;6.70;99793.00;;;;16655301;28;20212;-70
2022/11/13 03:27:02;;;;;;;29.60;16.73;;;;;6.50;99791.00;;;;16653118;28;20232;-69
2022/11/13 03:35:25;;;;;;;20.63;13.57;;;;;6.60;99792.00;;;;16653850;28;20215;-69
2022/11/13 03:43:46;;;;;;;17.50;14.40;;;;;6.00;99801.00;;;;16647343;28;20235;-71
2022/11/13 03:52:08;;;;;;;14.37;12.87;;;;;6.70;99788.00;;;;16658325;28;20237;-69
2022/11/13 04:00:30;;;;;;;18.23;14.50;;;;;6.90;99784.00;;;;16649060;28;20593;-70
2022/11/13 04:08:53;;;;;;;19.90;17.60;;;;;6.90;99778.00;;;;16669338;28;20237;-70
2022/11/13 04:17:14;;;;;;;17.40;15.60;;;;;7.00;99779.00;;;;16657960;28;20232;-69
2022/11/13 04:25:37;;;;;;;18.77;16.80;;;;;7.60;99764.00;;;;16650429;28;20229;-70
2022/11/13 04:33:58;;;;;;;21.40;16.67;;;;;7.10;99751.00;;;;16653181;28;20250;-69
2022/11/13 04:50:59;;;;;;;45.70;17.50;;;;;5.70;99753.00;;;;16650904;28;20224;-70
2022/11/13 04:59:23;;;;;;;26.50;16.43;;;;;6.70;99738.00;;;;16645550;28;20199;-69
2022/11/13 05:07:44;;;;;;;48.50;16.17;;;;;6.90;99727.00;;;;16661903;28;20225;-69
2022/11/13 05:16:08;;;;;;;19.40;16.17;;;;;7.10;99710.00;;;;16660829;28;20265;-70
2022/11/13 05:24:29;;;;;;;39.40;15.73;;;;;6.90;99711.00;;;;16640136;28;20236;-70
2022/11/13 05:32:52;;;;;;;41.07;14.73;;;;;5.80;99722.00;;;;16632488;28;20592;-70
2022/11/13 05:41:15;;;;;;;61.23;17.60;;;;;5.80;99701.00;;;;16626450;28;20244;-71
2022/11/13 05:49:37;;;;;;;36.20;14.43;;;;;5.20;99716.00;;;;16621383;28;20214;-70
2022/11/13 05:57:59;;;;;;;34.23;13.47;;;;;5.40;99725.00;;;;16630631;28;20225;-70
2022/11/13 06:06:22;;;;;;;29.70;12.73;;;;;5.30;99722.00;;;;16631822;28;20231;-70
2022/11/13 06:14:44;;;;;;;15.83;13.73;;;;;6.10;99708.00;;;;16615293;28;20310;-70
2022/11/13 06:23:06;;;;;;;23.33;17.37;;;;;6.10;99705.00;;;;16610106;28;20255;-70
2022/11/13 06:31:29;;;;;;;21.80;17.00;;;;;5.80;99705.00;;;;16608736;28;20232;-70
2022/11/13 06:39:54;;;;;;;24.53;17.57;;;;;6.20;99701.00;;;;16608188;28;20211;-70
2022/11/13 06:48:16;;;;;;;28.13;17.67;;;;;6.20;99685.00;;;;16620268;28;20319;-70
2022/11/13 06:56:42;;;;;;;39.37;18.27;;;;;5.50;99684.00;;;;16618905;28;20250;-71
2022/11/13 07:05:03;;;;;;;35.53;20.70;;;;;5.80;99677.00;;;;16623245;28;20788;-71
2022/11/13 07:13:27;;;;;;;21.97;17.30;;;;;5.80;99668.00;;;;16626433;28;20493;-71
2022/11/13 07:21:47;;;;;;;21.60;16.90;;;;;5.80;99662.00;;;;16629259;28;20227;-72
2022/11/13 07:30:14;;;;;;;36.30;14.40;;;;;6.30;99642.00;;;;16626797;28;20220;-71
2022/11/13 07:38:35;;;;;;;14.97;13.37;;;;;9.60;99610.00;;;;16626171;28;20209;-73
2022/11/13 07:46:57;;;;;;;22.00;15.90;;;;;6.20;99639.00;;;;16630161;28;20717;-71
2022/11/13 07:55:18;;;;;;;27.93;16.80;;;;;5.60;99632.00;;;;16630929;28;20215;-70
2022/11/13 08:03:40;;;;;;;30.00;17.03;;;;;5.70;99605.00;;;;16618174;28;20235;-71
2022/11/13 08:12:02;;;;;;;74.43;22.87;;;;;5.90;99612.00;;;;16603287;28;20298;-72
2022/11/13 08:20:25;;;;;;;34.00;17.90;;;;;6.10;99603.00;;;;16591988;28;20205;-72
2022/11/13 08:28:46;;;;;;;17.10;15.13;;;;;6.10;99602.00;;;;16596132;28;20251;-72
2022/11/13 08:37:08;;;;;;;26.20;16.87;;;;;6.50;99589.00;;;;16603917;28;20583;-72
2022/11/13 08:45:30;;;;;;;16.90;14.83;;;;;6.30;99581.00;;;;16594924;28;20238;-72
2022/11/13 08:53:52;;;;;;;16.20;13.77;;;;;6.30;99575.00;;;;16620616;28;20224;-72
2022/11/13 09:02:17;;;;;;;16.67;14.87;;;;;6.30;99573.00;;;;16629582;28;20230;-72
2022/11/13 09:10:40;;;;;;;25.33;17.27;;;;;6.00;99565.00;;;;16610788;28;20228;-72
2022/11/13 09:19:01;;;;;;;16.40;14.70;;;;;7.20;99570.00;;;;16610473;28;20205;-74
2022/11/13 09:27:24;;;;;;;25.40;17.03;;;;;6.60;99553.00;;;;16605828;28;20221;-78
2022/11/13 09:35:45;;;;;;;16.67;15.00;;;;;6.50;99547.00;;;;16632867;28;20240;-71
2022/11/13 09:44:17;;;;;;;17.43;15.73;;;;;7.40;99530.00;;;;16642598;28;20264;-71
2022/11/13 09:52:41;;;;;;;15.93;14.43;;;;;7.50;99536.00;;;;16631970;28;20226;-73
2022/11/13 10:01:04;;;;;;;15.80;14.30;;;;;6.70;99538.00;;;;16620402;28;20234;-74
2022/11/13 10:09:33;;;;;;;16.30;14.77;;;;;7.90;99527.00;;;;16627660;28;20233;-72
2022/11/13 10:17:58;;;;;;;14.93;13.50;;;;;9.20;99508.00;;;;16614256;28;20230;-78
2022/11/13 10:26:21;;;;;;;14.60;13.30;;;;;9.70;99497.00;;;;16631866;28;20321;-72
2022/11/13 10:34:44;;;;;;;16.30;14.70;;;;;10.00;99472.00;;;;16645086;28;20274;-73
2022/11/13 10:43:07;;;;;;;12.77;11.50;;;;;11.50;99463.00;;;;16604856;28;20247;-72
2022/11/13 10:51:34;;;;;;;12.10;11.13;;;;;11.30;99440.00;;;;16610090;28;20317;-73
2022/11/13 10:59:55;;;;;;;13.50;11.60;;;;;9.90;99422.00;;;;16600847;28;20218;-73
2022/11/13 11:08:18;;;;;;;12.10;10.80;;;;;10.20;99389.00;;;;16607026;28;20831;-75
2022/11/13 11:16:39;;;;;;;12.33;11.23;;;;;12.20;99365.00;;;;16595387;28;20220;-76
2022/11/13 11:25:06;;;;;;;12.77;10.70;;;;;12.90;99348.00;;;;16616581;28;20234;-73
2022/11/13 11:33:32;;;;;;;12.60;11.50;;;;;13.00;99327.00;;;;16606834;28;20309;-73
2022/11/13 11:42:03;;;;;;;12.40;11.30;;;;;14.00;99310.00;;;;16603855;28;20741;-72
2022/11/13 11:50:32;;;;;;;10.90;10.07;;;;;12.60;99317.00;;;;16612966;28;20325;-74
2022/11/13 11:59:06;;;;;;;13.00;11.70;;;;;12.10;99281.00;;;;16607131;28;20580;-72
2022/11/13 12:07:34;;;;;;;13.03;11.83;;;;;12.40;99267.00;;;;16625858;28;20218;-72
2022/11/13 12:16:02;;;;;;;12.57;11.53;;;;;12.70;99252.00;;;;16613638;28;20230;-75
2022/11/13 12:24:48;;;;;;;13.83;12.50;;;;;12.60;99231.00;;;;16619318;28;20235;-73
2022/11/13 12:33:21;;;;;;;12.90;11.60;;;;;13.10;99219.00;;;;16618391;28;20239;-73
2022/11/13 12:41:47;;;;;;;12.30;11.30;;;;;13.20;99195.00;;;;16615366;28;20695;-75
2022/11/13 12:50:25;;;;;;;12.67;11.50;;;;;13.70;99194.00;;;;16631307;28;20214;-72
2022/11/13 12:58:57;;;;;;;12.73;11.50;;;;;14.30;99185.00;;;;16623423;28;20671;-73
2022/11/13 13:07:31;;;;;;;13.03;11.83;;;;;13.80;99167.00;;;;16619853;28;20272;-73
2022/11/13 13:15:55;;;;;;;12.30;11.00;;;;;14.20;99157.00;;;;16619341;28;20277;-74
2022/11/13 13:24:31;;;;;;;12.17;10.87;;;;;14.90;99141.00;;;;16602425;28;20231;-73
2022/11/13 13:33:00;;;;;;;11.93;10.83;;;;;14.80;99141.00;;;;16609602;28;20580;-74
2022/11/13 13:41:34;;;;;;;12.23;11.10;;;;;15.40;99128.00;;;;16604595;28;20273;-74
2022/11/13 13:49:55;;;;;;;11.73;10.53;;;;;15.00;99107.00;;;;16614571;28;20231;-74
2022/11/13 13:58:21;;;;;;;13.17;11.97;;;;;14.40;99116.00;;;;16608145;28;20215;-74
2022/11/13 14:06:50;;;;;;;13.67;12.47;;;;;14.20;99099.00;;;;16627311;28;20230;-75
2022/11/13 14:15:25;;;;;;;12.70;11.50;;;;;14.10;99094.00;;;;16638898;28;20856;-74
2022/11/13 14:23:48;;;;;;;12.67;11.43;;;;;13.70;99084.00;;;;16605735;28;20226;-77
2022/11/13 14:32:14;;;;;;;13.00;11.90;;;;;13.50;99075.00;;;;16611287;28;20221;-74
2022/11/13 14:40:37;;;;;;;11.83;10.73;;;;;13.70;99076.00;;;;16606614;28;20781;-74
2022/11/13 14:48:59;;;;;;;12.57;11.27;;;;;13.10;99099.00;;;;16606235;28;20835;-74
2022/11/13 14:57:20;;;;;;;13.47;12.07;;;;;11.80;99101.00;;;;16607242;28;20223;-74
2022/11/13 15:05:43;;;;;;;14.00;12.37;;;;;11.50;99101.00;;;;16613132;28;20692;-74
2022/11/13 15:14:04;;;;;;;17.97;16.17;;;;;11.30;99091.00;;;;16605522;28;20262;-73
2022/11/13 15:22:26;;;;;;;13.63;12.30;;;;;10.70;99111.00;;;;16592159;28;20228;-73
2022/11/13 15:30:48;;;;;;;17.97;16.17;;;;;10.40;99103.00;;;;16624647;28;20258;-73
2022/11/13 15:39:11;;;;;;;20.00;17.83;;;;;10.10;99102.00;;;;16609398;28;20209;-73
2022/11/13 15:47:34;;;;;;;14.77;13.27;;;;;9.80;99106.00;;;;16604193;28;20258;-73
2022/11/13 15:56:01;;;;;;;28.60;22.10;;;;;9.60;99098.00;;;;16626311;28;20224;-73
2022/11/13 16:04:23;;;;;;;20.90;18.33;;;;;9.50;99116.00;;;;16632529;28;20223;-73
2022/11/13 16:12:45;;;;;;;19.20;16.40;;;;;9.10;99106.00;;;;16628515;28;20230;-72
2022/11/13 16:21:08;;;;;;;19.33;17.33;;;;;8.90;99103.00;;;;16611078;28;20398;-72
2022/11/13 16:29:31;;;;;;;18.77;16.80;;;;;8.70;99110.00;;;;16601785;28;20222;-72
2022/11/13 16:37:52;;;;;;;23.80;19.90;;;;;8.60;99114.00;;;;16610244;28;20226;-69
2022/11/13 16:46:20;;;;;;;20.97;17.90;;;;;8.80;99121.00;;;;16616379;28;20231;-72
2022/11/13 16:54:41;;;;;;;20.20;18.10;;;;;8.10;99123.00;;;;16616959;28;20237;-70
2022/11/13 17:03:03;;;;;;;19.23;16.87;;;;;8.20;99117.00;;;;16620274;28;20234;-71
2022/11/13 17:11:26;;;;;;;29.50;24.00;;;;;8.20;99119.00;;;;16599389;28;20227;-72
2022/11/13 17:19:48;;;;;;;22.10;19.40;;;;;8.10;99122.00;;;;16601473;28;20204;-72
2022/11/13 17:28:09;;;;;;;24.00;21.40;;;;;8.50;99112.00;;;;16611472;28;20238;-70
2022/11/13 17:36:31;;;;;;;24.63;22.13;;;;;8.60;99121.00;;;;16608543;28;20272;-71
2022/11/13 17:44:53;;;;;;;21.27;19.13;;;;;8.30;99116.00;;;;16617691;28;20229;-70
2022/11/13 17:53:15;;;;;;;21.37;19.23;;;;;7.80;99109.00;;;;16611250;28;20224;-70
2022/11/13 18:01:36;;;;;;;22.40;19.80;;;;;7.60;99114.00;;;;16604235;28;20694;-71
2022/11/13 18:09:59;;;;;;;27.40;24.50;;;;;7.80;99117.00;;;;16596088;28;20726;-73
2022/11/13 18:18:20;;;;;;;38.63;27.97;;;;;7.80;99111.00;;;;16603647;28;20601;-72
2022/11/13 18:26:43;;;;;;;23.27;20.77;;;;;7.70;99097.00;;;;16636596;28;20933;-71
2022/11/13 18:35:05;;;;;;;19.90;17.73;;;;;7.40;99085.00;;;;16614936;28;20837;-69
2022/11/13 18:43:27;;;;;;;41.20;31.17;;;;;7.50;99092.00;;;;16603499;28;20234;-73
2022/11/13 18:51:48;;;;;;;30.00;26.73;;;;;7.80;99075.00;;;;16595135;28;20239;-70
2022/11/13 19:00:12;;;;;;;24.53;21.90;;;;;7.40;99076.00;;;;16594404;28;20229;-74
2022/11/13 19:08:34;;;;;;;26.40;23.57;;;;;7.30;99082.00;;;;16591611;28;20222;-71
2022/11/13 19:16:56;;;;;;;24.40;21.80;;;;;7.00;99070.00;;;;16616709;28;20219;-70
2022/11/13 19:25:17;;;;;;;25.43;21.60;;;;;7.10;99080.00;;;;16597859;28;20231;-72
2022/11/13 19:33:40;;;;;;;26.40;22.40;;;;;6.90;99070.00;;;;16612261;28;20231;-70
2022/11/13 19:42:01;;;;;;;27.80;24.87;;;;;7.00;99065.00;;;;16604632;28;20234;-70
2022/11/13 19:50:24;;;;;;;36.23;29.00;;;;;6.90;99060.00;;;;16596386;28;20226;-70
2022/11/13 19:58:46;;;;;;;35.87;28.40;;;;;7.30;99060.00;;;;16592991;28;20872;-70
2022/11/13 20:07:10;;;;;;;41.37;31.87;;;;;6.70;99065.00;;;;16596733;28;20313;-69
2022/11/13 20:15:31;;;;;;;36.80;30.30;;;;;6.70;99060.00;;;;16605104;28;20265;-71
2022/11/13 20:23:56;;;;;;;35.83;29.67;;;;;6.60;99077.00;;;;16603039;28;20226;-71
2022/11/13 20:32:17;;;;;;;35.13;30.30;;;;;6.60;99078.00;;;;16589322;28;20237;-72
2022/11/13 20:40:39;;;;;;;33.80;28.60;;;;;6.50;99063.00;;;;16586010;28;20616;-69
2022/11/13 20:49:03;;;;;;;37.33;28.47;;;;;6.70;99077.00;;;;16591152;28;20229;-70
2022/11/13 20:57:26;;;;;;;37.40;29.53;;;;;6.70;99082.00;;;;16600875;28;20818;-71
2022/11/13 21:05:48;;;;;;;31.60;26.03;;;;;6.30;99070.00;;;;16613025;28;20344;-70
2022/11/13 21:14:11;;;;;;;33.30;25.57;;;;;6.70;99067.00;;;;16608600;28;20304;-71
2022/11/13 21:22:32;;;;;;;36.50;28.13;;;;;7.10;99058.00;;;;16593866;28;20724;-71
2022/11/13 21:30:55;;;;;;;39.97;31.80;;;;;6.70;99056.00;;;;16588560;28;20309;-71
2022/11/13 21:39:16;;;;;;;40.67;30.87;;;;;7.30;99028.00;;;;16591495;28;20787;-71
2022/11/13 21:47:38;;;;;;;33.63;27.20;;;;;6.40;99014.00;;;;16591581;28;20233;-70
2022/11/13 21:55:59;;;;;;;30.67;24.93;;;;;6.20;99016.00;;;;16604744;28;20321;-70
2022/11/13 22:04:21;;;;;;;36.50;29.80;;;;;6.40;99022.00;;;;16644737;28;20236;-71
2022/11/13 22:12:42;;;;;;;33.67;27.03;;;;;6.50;99028.00;;;;16634202;28;20315;-71
2022/11/13 22:21:07;;;;;;;28.27;23.50;;;;;5.80;99023.00;;;;16626318;28;20222;-71
2022/11/13 22:29:27;;;;;;;34.63;25.57;;;;;5.80;99022.00;;;;16658484;28;20795;-70
2022/11/13 22:37:50;;;;;;;38.40;28.90;;;;;5.80;99019.00;;;;16661596;28;20222;-70
2022/11/13 22:46:12;;;;;;;32.83;26.73;;;;;7.00;99018.00;;;;16670728;28;20232;-71
2022/11/13 22:54:35;;;;;;;27.33;21.70;;;;;7.20;98988.00;;;;16664001;28;20224;-70
2022/11/13 23:02:56;;;;;;;27.07;20.57;;;;;5.70;98994.00;;;;16673482;28;20581;-70
2022/11/13 23:11:21;;;;;;;25.80;18.30;;;;;5.90;98976.00;;;;16653290;28;20239;-71
2022/11/13 23:19:41;;;;;;;23.93;17.83;;;;;5.60;98964.00;;;;16663336;28;20207;-70
2022/11/13 23:28:04;;;;;;;27.13;19.83;;;;;5.40;98962.00;;;;16661705;28;20611;-70
2022/11/13 23:36:26;;;;;;;27.13;20.53;;;;;5.20;98937.00;;;;16659448;28;20220;-70
2022/11/13 23:44:49;;;;;;;17.27;15.17;;;;;5.20;98942.00;;;;16671688;28;20244;-70
2022/11/13 23:53:10;;;;;;;21.07;17.20;;;;;4.90;98947.00;;;;16656323;28;20228;-69
